createdAt,value
2022-11-20T00:00:39.008Z,13.88
2022-11-20T00:03:05.447Z,15.75
2022-11-20T00:05:33.784Z,16.42
2022-11-20T00:08:00.296Z,14.77
2022-11-20T00:10:27.562Z,13.88
2022-11-20T00:12:53.996Z,15.75
2022-11-20T00:15:20.468Z,14.10
2022-11-20T00:17:47.292Z,15.02
2022-11-20T00:20:14.048Z,14.98
2022-11-20T00:22:40.551Z,14.93
2022-11-20T00:25:07.370Z,15.30
2022-11-20T00:27:34.070Z,14.90
2022-11-20T00:30:00.523Z,14.95
2022-11-20T00:32:27.015Z,15.02
2022-11-20T00:34:53.463Z,15.43
2022-11-20T00:37:19.944Z,15.45
2022-11-20T00:39:46.381Z,14.88
2022-11-20T00:42:12.924Z,15.23
2022-11-20T00:44:39.672Z,14.63
2022-11-20T00:47:06.195Z,14.82
2022-11-20T00:49:35.724Z,14.93
2022-11-20T00:52:02.230Z,14.00
2022-11-20T00:54:29.248Z,14.88
2022-11-20T00:56:55.765Z,13.93
2022-11-20T01:01:40.412Z,14.88
2022-11-20T01:04:07.092Z,14.05
2022-11-20T01:06:35.838Z,12.20
2022-11-20T01:09:06.500Z,13.90
2022-11-20T01:11:36.935Z,14.82
2022-11-20T01:14:05.836Z,13.95
2022-11-20T01:16:38.059Z,15.63
2022-11-20T01:19:07.609Z,15.50
2022-11-20T01:21:36.724Z,16.95
2022-11-20T01:24:05.352Z,14.50
2022-11-20T01:26:35.309Z,14.75
2022-11-20T01:29:02.941Z,14.07
2022-11-20T01:31:35.217Z,14.35
2022-11-20T01:34:05.573Z,14.57
2022-11-20T01:36:33.955Z,14.55
2022-11-20T01:39:06.798Z,14.82
2022-11-20T01:41:53.109Z,14.63
2022-11-20T01:44:23.217Z,15.38
2022-11-20T01:47:03.012Z,14.75
2022-11-20T01:49:38.394Z,13.55
2022-11-20T01:52:09.581Z,14.52
2022-11-20T01:55:01.493Z,14.75
2022-11-20T01:57:30.764Z,14.80
2022-11-20T02:00:10.582Z,12.90
2022-11-20T02:02:39.876Z,14.63
2022-11-20T02:05:45.152Z,14.43
2022-11-20T02:08:12.811Z,14.10
2022-11-20T02:10:39.412Z,14.40
2022-11-20T02:13:24.842Z,14.75
2022-11-20T02:15:51.500Z,15.10
2022-11-20T02:18:20.181Z,13.10
2022-11-20T02:20:49.471Z,14.27
2022-11-20T02:23:20.984Z,14.52
2022-11-20T02:25:50.880Z,14.10
2022-11-20T02:28:18.617Z,14.27
2022-11-20T02:30:45.083Z,13.05
2022-11-20T02:33:11.526Z,12.15
2022-11-20T02:35:42.149Z,12.98
2022-11-20T02:38:09.164Z,12.25
2022-11-20T02:40:35.692Z,13.37
2022-11-20T02:43:02.129Z,14.55
2022-11-20T02:45:28.558Z,13.65
2022-11-20T02:47:54.985Z,14.02
2022-11-20T02:50:21.742Z,14.52
2022-11-20T02:52:48.263Z,13.75
2022-11-20T02:55:14.765Z,15.10
2022-11-20T02:57:41.250Z,14.10
2022-11-20T03:00:08.549Z,13.45
2022-11-20T03:02:35.332Z,13.52
2022-11-20T03:05:02.015Z,12.65
2022-11-20T03:07:28.777Z,11.70
2022-11-20T03:09:55.527Z,14.30
2022-11-20T03:12:21.993Z,13.63
2022-11-20T03:14:52.820Z,13.23
2022-11-20T03:17:19.894Z,12.20
2022-11-20T03:19:46.440Z,13.32
2022-11-20T03:22:12.965Z,14.45
2022-11-20T03:24:39.402Z,14.40
2022-11-20T03:27:05.855Z,14.05
2022-11-20T03:29:32.331Z,13.35
2022-11-20T03:31:58.862Z,13.18
2022-11-20T03:34:25.326Z,13.05
2022-11-20T03:36:51.828Z,14.48
2022-11-20T03:39:18.552Z,13.77
2022-11-20T03:41:45.845Z,14.43
2022-11-20T03:44:12.964Z,13.80
2022-11-20T03:46:39.637Z,12.93
2022-11-20T03:49:06.414Z,14.15
2022-11-20T03:51:35.635Z,15.60
2022-11-20T03:54:06.810Z,13.30
2022-11-20T03:56:36.259Z,15.52
2022-11-20T03:59:03.556Z,14.00
2022-11-20T04:01:38.637Z,13.93
2022-11-20T04:04:05.878Z,15.38
2022-11-20T04:06:37.647Z,11.37
2022-11-20T04:09:05.060Z,15.63
2022-11-20T04:11:33.742Z,15.63
2022-11-20T04:14:05.316Z,15.57
2022-11-20T04:16:34.261Z,14.98
2022-11-20T04:19:04.249Z,14.52
2022-11-20T04:21:30.737Z,15.68
2022-11-20T04:23:57.733Z,14.93
2022-11-20T04:26:27.016Z,14.37
2022-11-20T04:28:54.068Z,14.80
2022-11-20T04:31:25.311Z,16.07
2022-11-20T04:33:52.466Z,14.93
2022-11-20T04:36:24.748Z,15.67
2022-11-20T04:38:56.490Z,16.33
2022-11-20T04:41:25.473Z,15.95
2022-11-20T04:43:54.206Z,14.32
2022-11-20T04:46:21.684Z,15.68
2022-11-20T04:48:48.771Z,16.10
2022-11-20T04:51:15.564Z,16.07
2022-11-20T04:53:42.869Z,15.30
2022-11-20T04:56:11.714Z,15.00
2022-11-20T04:58:39.048Z,14.57
2022-11-20T05:01:13.174Z,14.90
2022-11-20T05:03:44.940Z,15.40
2022-11-20T05:06:13.330Z,14.77
2022-11-20T05:08:40.020Z,14.20
2022-11-20T05:11:11.945Z,16.42
2022-11-20T05:13:39.229Z,15.32
2022-11-20T05:16:16.825Z,14.60
2022-11-20T05:18:44.079Z,16.00
2022-11-20T05:21:11.620Z,12.17
2022-11-20T05:23:39.157Z,15.07
2022-11-20T05:26:08.037Z,15.63
2022-11-20T05:28:35.372Z,15.45
2022-11-20T05:31:14.101Z,15.60
2022-11-20T05:33:42.477Z,16.15
2022-11-20T05:36:11.192Z,15.75
2022-11-20T05:38:38.308Z,14.85
2022-11-20T05:41:12.214Z,15.77
2022-11-20T05:43:40.882Z,15.93
2022-11-20T05:46:09.558Z,16.45
2022-11-20T05:48:37.117Z,16.23
2022-11-20T05:51:06.231Z,15.93
2022-11-20T05:53:37.122Z,15.20
2022-11-20T05:56:09.291Z,15.70
2022-11-20T05:58:35.889Z,15.55
2022-11-20T06:01:14.040Z,15.38
2022-11-20T06:03:43.267Z,17.02
2022-11-20T06:06:10.075Z,15.88
2022-11-20T06:08:36.594Z,15.98
2022-11-20T06:11:10.983Z,15.52
2022-11-20T06:13:41.772Z,16.25
2022-11-20T06:16:09.158Z,16.73
2022-11-20T06:18:35.678Z,16.20
2022-11-20T06:21:10.425Z,16.95
2022-11-20T06:23:37.209Z,16.50
2022-11-20T06:26:06.329Z,15.82
2022-11-20T06:28:33.405Z,15.02
2022-11-20T06:30:59.939Z,15.73
2022-11-20T06:33:26.723Z,15.48
2022-11-20T06:35:59.510Z,16.48
2022-11-20T06:38:27.888Z,17.15
2022-11-20T06:40:54.632Z,15.98
2022-11-20T06:43:22.621Z,16.75
2022-11-20T06:45:57.159Z,17.60
2022-11-20T06:48:24.712Z,17.88
2022-11-20T06:50:51.899Z,17.10
2022-11-20T06:53:18.540Z,17.53
2022-11-20T06:55:49.050Z,16.92
2022-11-20T06:58:16.724Z,17.77
2022-11-20T07:00:43.636Z,16.63
2022-11-20T07:03:12.999Z,17.63
2022-11-20T07:05:39.696Z,16.85
2022-11-20T07:08:06.473Z,16.67
2022-11-20T07:10:33.297Z,17.88
2022-11-20T07:13:00.427Z,18.70
2022-11-20T07:15:27.256Z,13.07
2022-11-20T07:17:54.265Z,18.27
2022-11-20T07:20:20.831Z,17.33
2022-11-20T07:22:47.430Z,19.02
2022-11-20T07:25:13.942Z,17.30
2022-11-20T07:27:40.424Z,17.58
2022-11-20T07:33:39.884Z,17.58
2022-11-20T07:36:06.544Z,20.60
2022-11-20T07:38:33.255Z,18.33
2022-11-20T07:41:02.499Z,19.00
2022-11-20T07:43:29.274Z,17.63
2022-11-20T07:45:59.898Z,18.75
2022-11-20T07:48:26.929Z,18.13
2022-11-20T07:50:57.497Z,17.20
2022-11-20T07:53:24.384Z,18.23
2022-11-20T07:55:55.270Z,18.48
2022-11-20T07:58:22.300Z,18.75
2022-11-20T08:00:48.936Z,18.47
2022-11-20T08:03:19.083Z,18.60
2022-11-20T08:05:48.460Z,19.13
2022-11-20T08:08:14.928Z,18.05
2022-11-20T08:10:41.445Z,18.65
2022-11-20T08:13:28.347Z,17.42
2022-11-20T08:15:54.801Z,18.60
2022-11-20T08:18:36.937Z,18.83
2022-11-20T08:21:04.837Z,19.40
2022-11-20T08:23:31.301Z,19.55
2022-11-20T08:25:57.750Z,17.85
2022-11-20T08:28:24.758Z,17.15
2022-11-20T08:30:51.607Z,18.20
2022-11-20T08:33:19.078Z,30.77
2022-11-20T08:35:45.698Z,20.52
2022-11-20T08:38:12.177Z,19.23
2022-11-20T08:40:38.995Z,17.45
2022-11-20T08:43:05.674Z,17.63
2022-11-20T08:45:34.711Z,21.60
2022-11-20T08:48:05.629Z,19.38
2022-11-20T08:50:33.030Z,17.02
2022-11-20T08:53:09.125Z,20.92
2022-11-20T08:55:38.305Z,18.67
2022-11-20T08:58:05.880Z,18.05
2022-11-20T09:00:33.438Z,18.92
2022-11-20T09:03:01.911Z,18.45
2022-11-20T09:05:28.623Z,18.00
2022-11-20T09:07:58.483Z,19.35
2022-11-20T09:10:25.349Z,20.17
2022-11-20T09:12:53.430Z,20.40
2022-11-20T09:15:20.373Z,19.42
2022-11-20T09:17:57.819Z,19.17
2022-11-20T09:20:24.645Z,20.13
2022-11-20T09:22:51.203Z,18.73
2022-11-20T09:25:17.930Z,20.40
2022-11-20T09:27:46.771Z,20.08
2022-11-20T09:30:14.822Z,20.30
2022-11-20T09:35:08.893Z,18.35
2022-11-20T09:37:36.058Z,18.00
2022-11-20T09:40:03.197Z,19.30
2022-11-20T09:42:48.720Z,18.03
2022-11-20T09:45:23.284Z,18.58
2022-11-20T09:48:17.708Z,17.33
2022-11-20T09:51:09.727Z,16.40
2022-11-20T09:53:38.864Z,16.05
2022-11-20T09:56:06.057Z,15.25
2022-11-20T09:58:39.650Z,14.27
2022-11-20T10:01:15.027Z,14.45
2022-11-20T10:03:50.176Z,14.15
2022-11-20T10:06:19.133Z,12.80
2022-11-20T10:08:56.760Z,14.00
2022-11-20T10:11:33.540Z,10.30
2022-11-20T10:14:28.337Z,12.45
2022-11-20T10:17:00.727Z,14.30
2022-11-20T10:19:53.780Z,13.05
2022-11-20T10:22:20.227Z,14.63
2022-11-20T10:24:49.637Z,15.52
2022-11-20T10:27:16.090Z,17.48
2022-11-20T10:29:46.583Z,18.80
2022-11-20T10:32:18.767Z,15.48
2022-11-20T10:34:50.051Z,16.90
2022-11-20T10:37:24.225Z,25.98
2022-11-20T10:40:00.089Z,22.63
2022-11-20T10:42:38.753Z,18.48
2022-11-20T10:45:33.093Z,18.30
2022-11-20T10:48:08.920Z,18.00
2022-11-20T10:50:38.694Z,16.85
2022-11-20T10:53:17.172Z,15.65
2022-11-20T10:55:49.765Z,17.95
2022-11-20T10:58:37.645Z,18.27
2022-11-20T11:01:25.103Z,18.67
2022-11-20T11:03:58.818Z,18.30
2022-11-20T11:06:35.053Z,17.98
2022-11-20T11:09:10.115Z,19.27
2022-11-20T11:11:36.874Z,19.10
2022-11-20T11:14:16.535Z,25.42
2022-11-20T11:16:57.460Z,19.58
2022-11-20T11:19:24.920Z,19.05
2022-11-20T11:21:56.721Z,14.75
2022-11-20T11:24:41.616Z,16.30
2022-11-20T11:27:17.151Z,19.15
2022-11-20T11:29:45.213Z,18.75
2022-11-20T11:32:20.324Z,20.65
2022-11-20T11:35:00.130Z,20.58
2022-11-20T11:37:34.412Z,32.85
2022-11-20T11:40:23.516Z,43.60
2022-11-20T11:42:55.157Z,23.08
2022-11-20T11:45:22.828Z,21.17
2022-11-20T11:47:50.074Z,19.77
2022-11-20T11:50:19.992Z,19.40
2022-11-20T11:52:53.227Z,20.25
2022-11-20T11:55:33.759Z,16.92
2022-11-20T11:58:38.093Z,19.00
2022-11-20T12:01:18.384Z,19.20
2022-11-20T12:03:55.817Z,22.15
2022-11-20T12:06:22.471Z,24.10
2022-11-20T12:08:58.990Z,21.17
2022-11-20T12:11:32.096Z,20.45
2022-11-20T12:14:30.892Z,21.45
2022-11-20T12:16:58.716Z,19.52
2022-11-20T12:19:25.790Z,17.85
2022-11-20T12:22:01.488Z,20.73
2022-11-20T12:24:44.091Z,14.63
2022-11-20T12:27:29.372Z,19.13
2022-11-20T12:30:25.769Z,20.58
2022-11-20T12:32:58.086Z,21.23
2022-11-20T12:35:50.565Z,19.80
2022-11-20T12:38:50.882Z,18.65
2022-11-20T12:41:55.048Z,18.00
2022-11-20T12:44:52.749Z,20.35
2022-11-20T12:47:32.577Z,17.52
2022-11-20T12:50:28.967Z,19.98
2022-11-20T12:53:28.208Z,19.40
2022-11-20T12:56:22.355Z,17.05
2022-11-20T12:59:19.726Z,19.02
2022-11-20T13:01:51.499Z,19.20
2022-11-20T13:04:35.041Z,18.90
2022-11-20T13:07:04.864Z,19.75
2022-11-20T13:09:33.628Z,18.92
2022-11-20T13:12:10.988Z,18.13
2022-11-20T13:14:43.466Z,17.60
2022-11-20T13:17:20.473Z,17.65
2022-11-20T13:19:59.976Z,17.70
2022-11-20T13:22:43.659Z,20.85
2022-11-20T13:25:31.533Z,21.75
2022-11-20T13:28:00.544Z,16.75
2022-11-20T13:30:28.673Z,18.75
2022-11-20T13:32:58.415Z,19.20
2022-11-20T13:35:41.305Z,18.60
2022-11-20T13:38:15.356Z,19.00
2022-11-20T13:41:29.414Z,19.40
2022-11-20T13:44:08.858Z,17.25
2022-11-20T13:46:42.147Z,17.10
2022-11-20T13:49:11.355Z,20.25
2022-11-20T13:51:45.420Z,17.27
2022-11-20T13:54:33.739Z,20.83
2022-11-20T13:57:06.985Z,18.35
2022-11-20T14:00:01.417Z,20.02
2022-11-20T14:02:30.465Z,16.60
2022-11-20T14:04:59.921Z,17.85
2022-11-20T14:07:41.903Z,24.25
2022-11-20T14:10:23.996Z,18.40
2022-11-20T14:12:54.175Z,23.90
2022-11-20T14:15:35.221Z,16.20
2022-11-20T14:18:15.979Z,15.98
2022-11-20T14:20:44.168Z,15.52
2022-11-20T14:23:11.803Z,19.15
2022-11-20T14:25:42.926Z,17.75
2022-11-20T14:28:25.630Z,16.73
2022-11-20T14:30:53.142Z,18.30
2022-11-20T14:33:21.049Z,15.80
2022-11-20T14:38:22.340Z,14.73
2022-11-20T14:40:48.878Z,17.23
2022-11-20T14:43:24.383Z,16.83
2022-11-20T14:46:03.627Z,16.67
2022-11-20T14:48:37.979Z,17.60
2022-11-20T14:51:04.511Z,16.92
2022-11-20T14:53:31.872Z,13.25
2022-11-20T14:56:00.755Z,18.63
2022-11-20T14:58:29.938Z,20.55
2022-11-20T15:01:06.799Z,17.02
2022-11-20T15:03:41.263Z,19.67
2022-11-20T15:06:11.487Z,16.27
2022-11-20T15:08:38.708Z,18.02
2022-11-20T15:11:20.179Z,15.40
2022-11-20T15:13:46.806Z,17.15
2022-11-20T15:16:21.383Z,17.65
2022-11-20T15:18:48.387Z,16.35
2022-11-20T15:21:17.221Z,17.07
2022-11-20T15:23:43.820Z,16.30
2022-11-20T15:26:15.423Z,15.55
2022-11-20T15:28:48.753Z,16.88
2022-11-20T15:31:18.180Z,15.57
2022-11-20T15:33:44.925Z,21.38
2022-11-20T15:36:11.442Z,18.42
2022-11-20T15:38:38.260Z,17.42
2022-11-20T15:41:05.547Z,17.67
2022-11-20T15:43:32.227Z,18.90
2022-11-20T15:46:07.980Z,21.83
2022-11-20T15:48:47.960Z,32.85
2022-11-20T15:51:40.906Z,20.48
2022-11-20T16:10:25.250Z,22.58
2022-11-20T16:13:10.599Z,25.40
2022-11-20T16:15:46.051Z,59.80
2022-11-20T16:20:56.514Z,21.92
2022-11-20T16:28:55.522Z,22.13
2022-11-20T16:31:22.675Z,29.85
2022-11-20T16:34:00.901Z,18.90
2022-11-20T16:36:28.591Z,23.50
2022-11-20T16:41:38.940Z,23.90
2022-11-20T16:44:11.641Z,21.80
2022-11-20T16:46:38.971Z,21.85
2022-11-20T16:49:15.770Z,19.52
2022-11-20T16:51:42.948Z,19.70
2022-11-20T16:54:10.487Z,18.67
2022-11-20T16:56:37.458Z,23.38
2022-11-20T16:59:04.179Z,33.75
2022-11-20T17:01:31.384Z,24.58
2022-11-20T17:04:03.141Z,21.05
2022-11-20T17:06:32.557Z,17.70
2022-11-20T17:08:59.571Z,19.55
2022-11-20T17:11:27.664Z,18.23
2022-11-20T17:16:40.848Z,15.20
2022-11-20T17:19:07.472Z,37.40
2022-11-20T17:21:38.069Z,15.95
2022-11-20T17:24:06.941Z,15.45
2022-11-20T17:26:34.845Z,15.30
2022-11-20T17:29:11.810Z,13.98
2022-11-20T17:31:39.175Z,19.93
2022-11-20T17:34:07.186Z,11.93
2022-11-20T17:39:00.450Z,10.70
2022-11-20T17:41:29.323Z,10.45
2022-11-20T17:43:58.011Z,9.90
2022-11-20T17:46:28.203Z,8.80
2022-11-20T17:48:55.940Z,8.55
2022-11-20T17:51:25.496Z,7.78
2022-11-20T17:53:56.000Z,13.75
2022-11-20T17:56:41.687Z,9.20
2022-11-20T17:59:10.778Z,8.32
2022-11-20T18:01:37.474Z,8.30
2022-11-20T18:04:04.976Z,7.47
2022-11-20T18:06:32.321Z,4.30
2022-11-20T18:08:59.991Z,4.75
2022-11-20T18:11:28.718Z,8.02
2022-11-20T18:14:17.582Z,7.38
2022-11-20T18:16:49.122Z,6.68
2022-11-20T18:19:20.760Z,5.63
2022-11-20T18:21:47.853Z,7.22
2022-11-20T18:24:14.750Z,7.13
2022-11-20T18:26:44.552Z,8.65
2022-11-20T18:29:12.809Z,11.05
2022-11-20T18:34:06.814Z,9.65
2022-11-20T18:36:33.623Z,9.68
2022-11-20T18:39:01.697Z,8.30
2022-11-20T18:41:48.968Z,10.18
2022-11-20T18:44:35.664Z,11.95
2022-11-20T18:47:04.874Z,9.27
2022-11-20T18:49:34.689Z,10.93
2022-11-20T18:52:01.448Z,8.60
2022-11-20T19:09:24.371Z,11.10
2022-11-20T19:11:51.653Z,13.13
2022-11-20T19:14:18.189Z,13.03
2022-11-20T19:19:25.518Z,10.93
2022-11-20T19:24:35.434Z,11.45
2022-11-20T19:27:01.954Z,12.75
2022-11-20T19:29:33.301Z,12.90
2022-11-20T19:31:59.797Z,13.55
2022-11-20T19:34:26.252Z,9.73
2022-11-20T19:39:35.628Z,6.07
2022-11-20T19:44:43.057Z,3.58
2022-11-20T19:47:14.250Z,5.53
2022-11-20T19:49:41.883Z,5.47
2022-11-20T19:52:08.497Z,3.83
2022-11-20T19:54:35.022Z,5.90
2022-11-20T19:57:01.529Z,5.82
2022-11-20T19:59:28.212Z,3.67
2022-11-20T20:01:54.745Z,3.72
2022-11-20T20:04:21.338Z,3.65
2022-11-20T20:06:47.952Z,6.10
2022-11-20T20:09:14.441Z,3.85
2022-11-20T20:11:45.545Z,3.47
2022-11-20T20:14:14.729Z,3.67
2022-11-20T20:16:42.344Z,3.22
2022-11-20T20:19:13.230Z,3.53
2022-11-20T20:21:41.169Z,2.28
2022-11-20T20:26:34.368Z,3.75
2022-11-20T20:29:04.305Z,2.00
2022-11-20T20:31:33.251Z,3.38
2022-11-20T20:34:00.171Z,2.58
2022-11-20T20:36:26.734Z,3.13
2022-11-20T20:38:59.478Z,3.13
2022-11-20T20:41:26.150Z,1.83
2022-11-20T20:44:12.156Z,2.15
2022-11-20T20:46:39.575Z,2.25
2022-11-20T20:49:06.260Z,2.10
2022-11-20T20:54:13.226Z,2.45
2022-11-20T20:59:20.056Z,2.10
2022-11-20T21:01:46.578Z,1.80
2022-11-20T21:04:16.720Z,1.95
2022-11-20T21:06:43.190Z,2.22
2022-11-20T21:09:09.733Z,2.40
2022-11-20T21:11:36.213Z,2.95
2022-11-20T21:14:02.759Z,1.90
2022-11-20T21:16:40.868Z,3.28
2022-11-20T21:19:07.981Z,2.17
2022-11-20T21:21:52.897Z,2.27
2022-11-20T21:24:19.361Z,2.30
2022-11-20T21:26:45.931Z,1.75
2022-11-20T21:29:12.810Z,3.45
2022-11-20T21:31:39.290Z,2.15
2022-11-20T21:34:05.793Z,2.63
2022-11-20T21:36:32.287Z,1.73
2022-11-20T21:39:02.162Z,2.65
2022-11-20T21:41:30.790Z,2.90
2022-11-20T21:46:46.291Z,2.47
2022-11-20T21:49:13.147Z,2.40
2022-11-20T21:51:40.064Z,1.90
2022-11-20T21:54:07.702Z,1.77
2022-11-20T21:56:34.283Z,3.45
2022-11-20T21:59:00.836Z,1.67
2022-11-20T22:01:29.706Z,1.23
2022-11-20T22:03:58.836Z,2.25
2022-11-20T22:06:27.088Z,2.35
2022-11-20T22:08:53.671Z,3.22
2022-11-20T22:11:22.008Z,1.60
2022-11-20T22:14:07.078Z,2.58
2022-11-20T22:16:37.705Z,2.72
2022-11-20T22:19:05.931Z,2.28
2022-11-20T22:21:33.614Z,3.33
2022-11-20T22:24:00.352Z,2.50
2022-11-20T22:26:29.156Z,2.38
2022-11-20T22:28:57.659Z,2.40
2022-11-20T22:31:26.844Z,2.25
2022-11-20T22:33:53.564Z,2.97
2022-11-20T22:36:25.539Z,2.72
2022-11-20T22:38:52.343Z,1.75
2022-11-20T22:41:25.209Z,2.28
2022-11-20T22:43:58.902Z,1.95
2022-11-20T22:46:27.110Z,2.88
2022-11-20T22:48:58.458Z,3.45
2022-11-20T22:51:36.124Z,2.03
2022-11-20T22:54:03.661Z,3.67
2022-11-20T22:56:33.726Z,2.75
2022-11-20T22:59:00.313Z,2.45
2022-11-20T23:01:36.998Z,3.85
2022-11-20T23:04:11.822Z,2.05
2022-11-20T23:06:38.981Z,2.58
2022-11-20T23:09:07.818Z,1.83
2022-11-20T23:11:35.443Z,2.30
2022-11-20T23:14:05.635Z,3.85
2022-11-20T23:16:33.561Z,2.33
2022-11-20T23:21:28.535Z,2.72
2022-11-20T23:24:02.335Z,1.75
2022-11-20T23:26:31.186Z,3.50
2022-11-20T23:28:59.403Z,2.78
2022-11-20T23:31:28.552Z,2.05
2022-11-20T23:33:55.044Z,3.05
2022-11-20T23:36:21.688Z,4.20
2022-11-20T23:38:48.288Z,3.95
2022-11-20T23:41:15.252Z,2.47
2022-11-20T23:43:42.141Z,3.07
2022-11-20T23:46:13.704Z,3.15
2022-11-20T23:48:42.988Z,4.03
2022-11-20T23:51:09.975Z,3.03
2022-11-20T23:53:36.636Z,3.08
2022-11-20T23:56:04.988Z,2.25
2022-11-20T23:58:34.430Z,1.90
